Time;durP1;ratioP1;P1;durP2;ratioP2;P2;SDS_P1;SDS_P2;PMS_P1;PMS_P2;Temp;Humidity;BMP_temperature;BMP_pressure;BME280_temperature;BME280_humidity;BME280_pressure;Samples;Min_cycle;Max_cycle;Signal;HPM_P1;HPM_P2
2023/11/16 00:00:06;;;;;;;3.45;1.35;;;;;;;25.68;39.88;99731.16;4485371;32;34703;-57
2023/11/16 00:02:40;;;;;;;1.40;0.90;;;;;;;25.66;39.90;99735.22;4485166;32;34888;-54
2023/11/16 00:05:13;;;;;;;2.15;1.05;;;;;;;25.65;39.90;99748.06;4485240;32;33415;-56
2023/11/16 00:07:45;;;;;;;1.83;1.00;;;;;;;25.63;40.00;99741.16;4485086;32;34531;-56
2023/11/16 00:10:14;;;;;;;4.22;1.20;;;;;;;25.61;40.05;99746.03;4485248;32;34221;-59
2023/11/16 00:12:42;;;;;;;3.17;1.27;;;;;;;25.61;39.96;99737.84;4485303;32;33865;-57
2023/11/16 00:15:10;;;;;;;3.70;1.15;;;;;;;25.58;40.08;99739.16;4485123;32;33370;-55
2023/11/16 00:17:37;;;;;;;2.90;1.30;;;;;;;25.57;40.04;99742.97;4485278;32;33494;-59
2023/11/16 00:20:10;;;;;;;7.00;1.23;;;;;;;25.57;40.09;99736.66;4485485;32;33969;-57
2023/11/16 00:22:38;;;;;;;3.70;1.00;;;;;;;25.54;40.14;99740.69;4485002;32;34561;-59
2023/11/16 00:25:06;;;;;;;2.70;1.50;;;;;;;25.54;40.10;99742.59;4485277;32;34112;-57
2023/11/16 00:27:34;;;;;;;4.87;1.02;;;;;;;25.53;40.11;99735.50;4485083;32;33745;-57
2023/11/16 00:30:05;;;;;;;5.40;1.10;;;;;;;25.50;40.21;99742.25;4485109;32;33596;-59
2023/11/16 00:32:34;;;;;;;1.25;0.70;;;;;;;25.51;40.20;99748.53;4485015;32;34070;-56
2023/11/16 00:35:01;;;;;;;2.67;1.12;;;;;;;25.49;40.27;99750.69;4484803;32;33150;-58
2023/11/16 00:37:29;;;;;;;1.95;0.90;;;;;;;25.48;40.15;99754.50;4485139;32;34043;-59
2023/11/16 00:39:57;;;;;;;2.60;1.30;;;;;;;25.48;40.17;99751.78;4485145;32;33349;-59
2023/11/16 00:42:28;;;;;;;2.22;0.82;;;;;;;25.44;40.13;99752.25;4484995;32;34293;-58
2023/11/16 00:44:56;;;;;;;2.78;1.00;;;;;;;25.44;40.12;99752.25;4484209;32;33574;-59
2023/11/16 00:47:24;;;;;;;5.47;1.10;;;;;;;25.42;40.16;99762.59;4484962;32;34722;-59
2023/11/16 00:49:52;;;;;;;1.85;1.00;;;;;;;25.42;40.31;99761.78;4484822;32;33603;-54
2023/11/16 00:52:20;;;;;;;7.85;1.37;;;;;;;25.39;40.37;99757.59;4485306;32;34227;-59
2023/11/16 00:54:48;;;;;;;2.00;0.95;;;;;;;25.37;40.50;99759.75;4484913;32;33661;-56
2023/11/16 00:57:17;;;;;;;1.92;0.90;;;;;;;25.36;40.47;99752.62;4484753;32;34091;-53
2023/11/16 00:59:46;;;;;;;3.45;1.00;;;;;;;25.34;40.50;99752.03;4484923;32;34926;-57
2023/11/16 01:02:14;;;;;;;1.80;1.08;;;;;;;25.34;40.48;99756.69;4484841;32;34844;-55
2023/11/16 01:04:41;;;;;;;1.85;1.10;;;;;;;25.33;40.48;99755.03;4484628;32;33521;-51
2023/11/16 01:07:10;;;;;;;1.98;0.90;;;;;;;25.33;40.43;99746.81;4484953;32;34759;-60
2023/11/16 01:09:38;;;;;;;1.85;1.17;;;;;;;25.31;40.34;99748.94;4484913;32;33764;-58
2023/11/16 01:12:14;;;;;;;2.15;1.10;;;;;;;25.29;40.38;99757.37;4484697;32;34813;-59
2023/11/16 01:14:42;;;;;;;2.53;1.00;;;;;;;25.28;40.38;99755.75;4484699;32;34246;-56
2023/11/16 01:17:18;;;;;;;2.17;1.10;;;;;;;25.28;40.41;99765.84;4483499;32;33824;-57
2023/11/16 01:19:47;;;;;;;3.15;1.02;;;;;;;25.27;40.45;99764.16;4484896;32;34209;-54
2023/11/16 01:22:16;;;;;;;1.73;0.82;;;;;;;25.26;40.43;99765.22;4484777;32;34719;-54
2023/11/16 01:24:44;;;;;;;2.45;1.00;;;;;;;25.24;40.46;99756.47;4484668;32;34599;-56
2023/11/16 01:27:17;;;;;;;0.85;0.80;;;;;;;25.24;40.46;99756.47;4482446;32;34632;-59
2023/11/16 01:29:46;;;;;;;2.22;1.05;;;;;;;25.23;40.50;99762.97;4484208;32;34024;-57
2023/11/16 01:32:14;;;;;;;1.70;1.00;;;;;;;25.21;40.47;99760.47;4479945;32;34164;-59
2023/11/16 01:34:42;;;;;;;3.62;1.15;;;;;;;25.21;40.48;99763.22;4484541;32;34567;-56
2023/11/16 01:37:10;;;;;;;2.42;1.10;;;;;;;25.19;40.52;99774.38;4484488;32;34718;-56
2023/11/16 01:39:41;;;;;;;2.33;0.93;;;;;;;25.19;40.49;99770.81;4484506;32;33874;-59
2023/11/16 01:42:09;;;;;;;1.55;0.80;;;;;;;25.16;40.53;99763.94;4484647;32;35106;-55
2023/11/16 01:44:41;;;;;;;2.35;1.00;;;;;;;25.17;40.55;99772.94;4484784;32;33454;-56
2023/11/16 01:47:08;;;;;;;3.33;1.10;;;;;;;25.15;40.71;99775.09;4484602;32;33859;-56
2023/11/16 01:49:37;;;;;;;2.78;1.30;;;;;;;25.13;40.81;99772.63;4484477;32;34831;-56
2023/11/16 01:52:06;;;;;;;2.40;1.33;;;;;;;25.13;40.89;99786.28;4479279;32;34720;-53
2023/11/16 01:54:34;;;;;;;3.72;1.02;;;;;;;25.12;40.88;99787.31;4484471;32;33654;-55
2023/11/16 01:57:03;;;;;;;1.92;0.90;;;;;;;25.11;40.88;99793.03;4483077;32;35088;-54
2023/11/16 01:59:33;;;;;;;1.70;1.10;;;;;;;25.10;40.83;99797.66;4484518;32;33789;-55
2023/11/16 02:02:04;;;;;;;4.15;1.20;;;;;;;25.11;40.88;99796.59;4483328;32;34040;-55
2023/11/16 02:04:34;;;;;;;5.00;1.10;;;;;;;25.10;40.73;99802.28;4483115;32;33822;-58
2023/11/16 02:07:04;;;;;;;2.58;1.00;;;;;;;25.09;40.71;99801.47;4483235;32;33831;-57
2023/11/16 02:09:32;;;;;;;1.58;1.10;;;;;;;25.10;40.67;99807.75;4484809;32;34720;-56
2023/11/16 02:12:00;;;;;;;2.08;1.10;;;;;;;25.09;40.64;99808.81;4484326;32;34089;-57
2023/11/16 02:14:28;;;;;;;2.15;1.00;;;;;;;25.08;40.63;99812.59;4484470;32;33745;-57
2023/11/16 02:16:56;;;;;;;3.50;1.23;;;;;;;25.08;40.60;99818.06;4484307;32;34570;-55
2023/11/16 02:19:31;;;;;;;1.20;0.75;;;;;;;25.04;40.70;99809.50;4484211;32;34572;-55
2023/11/16 02:22:01;;;;;;;2.33;1.10;;;;;;;25.04;40.75;99812.22;4484649;32;34128;-57
2023/11/16 02:24:30;;;;;;;2.28;0.90;;;;;;;25.04;40.74;99814.97;4484230;32;33629;-58
2023/11/16 02:26:57;;;;;;;2.55;1.20;;;;;;;25.04;40.65;99812.22;4484268;32;34528;-57
2023/11/16 02:29:25;;;;;;;1.80;1.08;;;;;;;25.02;40.72;99814.34;4484342;32;34888;-53
2023/11/16 02:31:53;;;;;;;1.90;0.90;;;;;;;25.01;40.71;99809.97;4484048;32;33908;-55
2023/11/16 02:34:21;;;;;;;4.22;1.00;;;;;;;25.00;40.73;99811.03;4484257;32;34520;-57
2023/11/16 02:36:49;;;;;;;2.35;1.17;;;;;;;25.00;40.74;99812.94;4484174;32;34640;-55
2023/11/16 02:39:16;;;;;;;1.95;0.95;;;;;;;24.98;40.79;99815.06;4484128;32;33872;-55
2023/11/16 02:41:47;;;;;;;1.45;1.00;;;;;;;24.98;40.76;99815.06;4484160;32;34907;-56
2023/11/16 02:44:18;;;;;;;2.67;0.90;;;;;;;24.97;40.79;99818.87;4484430;32;33518;-56
2023/11/16 02:46:46;;;;;;;2.22;1.00;;;;;;;24.97;40.74;99811.50;4483959;32;33802;-57
2023/11/16 02:49:13;;;;;;;1.48;0.82;;;;;;;24.94;40.75;99815.53;4483923;32;33921;-55
2023/11/16 02:51:41;;;;;;;3.50;1.33;;;;;;;24.94;40.76;99809.25;4484126;32;34819;-56
2023/11/16 02:54:08;;;;;;;10.02;0.98;;;;;;;24.93;40.79;99821.22;4483892;32;33029;-56
2023/11/16 02:56:36;;;;;;;1.15;0.98;;;;;;;24.93;40.75;99818.50;4484220;32;33448;-59
2023/11/16 02:59:04;;;;;;;2.45;0.90;;;;;;;24.92;40.84;99823.13;4483997;32;33704;-58
2023/11/16 03:01:34;;;;;;;1.83;0.77;;;;;;;24.91;40.89;99818.75;4483744;32;34708;-58
2023/11/16 03:04:03;;;;;;;2.60;0.88;;;;;;;24.91;40.88;99821.47;4484001;32;34309;-58
2023/11/16 03:06:31;;;;;;;1.27;0.90;;;;;;;24.90;40.90;99824.41;4483738;32;34858;-55
2023/11/16 03:08:59;;;;;;;2.17;1.10;;;;;;;24.89;40.91;99822.75;4483106;32;33805;-56
2023/11/16 03:11:27;;;;;;;2.83;0.82;;;;;;;24.88;40.90;99827.41;4481184;32;34048;-55
2023/11/16 03:13:54;;;;;;;2.55;1.00;;;;;;;24.88;40.88;99832.03;4483679;32;33528;-56
2023/11/16 03:16:22;;;;;;;1.73;0.93;;;;;;;24.88;40.89;99842.94;4483772;32;33454;-56
2023/11/16 03:18:50;;;;;;;4.05;0.90;;;;;;;24.87;40.87;99841.28;4483785;32;34034;-56
2023/11/16 03:21:18;;;;;;;3.70;1.00;;;;;;;24.87;40.90;99850.31;4483584;32;34210;-56
2023/11/16 03:23:46;;;;;;;1.77;0.98;;;;;;;24.87;40.84;99849.47;4483692;32;34035;-57
2023/11/16 03:26:13;;;;;;;1.20;0.73;;;;;;;24.87;40.80;99857.66;4483551;32;34629;-57
2023/11/16 03:28:42;;;;;;;3.62;0.80;;;;;;;24.85;40.80;99860.59;4479231;32;33580;-57
2023/11/16 03:31:11;;;;;;;1.70;0.90;;;;;;;24.85;40.85;99859.78;4483547;32;34896;-56
2023/11/16 03:33:39;;;;;;;1.85;0.88;;;;;;;24.85;40.84;99865.22;4483559;32;34240;-57
2023/11/16 03:36:07;;;;;;;1.42;0.90;;;;;;;24.85;40.79;99863.34;4483241;32;33747;-57
2023/11/16 03:38:35;;;;;;;2.22;1.02;;;;;;;24.84;40.82;99858.94;4483317;32;33901;-59
2023/11/16 03:41:03;;;;;;;2.10;0.90;;;;;;;24.84;40.79;99863.56;4483081;32;34873;-57
2023/11/16 03:43:30;;;;;;;2.47;0.77;;;;;;;24.83;40.83;99867.38;4478188;32;33528;-59
2023/11/16 03:45:58;;;;;;;3.33;0.93;;;;;;;24.83;40.85;99856.47;4483582;32;34115;-56
2023/11/16 03:48:25;;;;;;;4.12;1.10;;;;;;;24.80;40.82;99863.22;4482995;32;33471;-59
2023/11/16 03:50:53;;;;;;;2.22;0.98;;;;;;;24.80;40.80;99859.66;4483178;32;33706;-56
2023/11/16 03:53:21;;;;;;;2.03;0.88;;;;;;;24.80;40.86;99862.38;4483315;32;34427;-59
2023/11/16 03:55:48;;;;;;;3.20;1.00;;;;;;;24.80;40.80;99863.22;4483190;32;33772;-58
2023/11/16 03:58:16;;;;;;;3.35;0.80;;;;;;;24.79;40.86;99866.19;4483216;32;34109;-58
2023/11/16 04:00:43;;;;;;;1.17;0.90;;;;;;;24.78;40.95;99867.25;4482940;32;34894;-59
2023/11/16 04:03:11;;;;;;;6.97;1.17;;;;;;;24.77;40.94;99865.59;4479753;32;33295;-60
2023/11/16 04:05:39;;;;;;;2.75;1.00;;;;;;;24.77;40.89;99868.31;4482808;32;34775;-60
2023/11/16 04:08:06;;;;;;;1.67;0.90;;;;;;;24.76;40.89;99867.50;4482992;32;34645;-55
2023/11/16 04:10:34;;;;;;;2.85;1.00;;;;;;;24.75;40.91;99871.28;4480953;32;34838;-58
2023/11/16 04:13:03;;;;;;;2.40;1.00;;;;;;;24.75;40.88;99871.28;4482811;32;34295;-57
2023/11/16 04:15:31;;;;;;;1.02;0.70;;;;;;;24.74;40.94;99871.50;4482998;32;33898;-57
2023/11/16 04:17:59;;;;;;;1.20;0.70;;;;;;;24.74;40.94;99866.06;4482978;32;34891;-56
2023/11/16 04:20:29;;;;;;;2.03;0.82;;;;;;;24.73;40.88;99864.41;4485031;32;35027;-57
2023/11/16 04:22:56;;;;;;;0.88;0.80;;;;;;;24.73;40.93;99867.12;4485108;32;33143;-55
2023/11/16 04:25:27;;;;;;;0.80;0.80;;;;;;;24.72;40.88;99881.84;4485526;32;33872;-54
2023/11/16 04:28:00;;;;;;;1.05;0.90;;;;;;;24.72;40.89;99870.94;4485037;32;34252;-55
2023/11/16 04:30:28;;;;;;;1.80;0.90;;;;;;;24.71;40.96;99875.53;4485191;32;34051;-60
2023/11/16 04:32:57;;;;;;;1.55;0.82;;;;;;;24.69;41.00;99872.22;4484856;32;33794;-56
2023/11/16 04:35:25;;;;;;;1.33;0.85;;;;;;;24.68;40.98;99865.94;4485207;32;34889;-55
2023/11/16 04:37:55;;;;;;;1.15;0.93;;;;;;;24.68;40.97;99870.56;4485083;32;33581;-57
2023/11/16 04:40:23;;;;;;;0.95;0.75;;;;;;;24.68;40.91;99873.28;4484950;32;33882;-57
2023/11/16 04:42:50;;;;;;;5.03;1.27;;;;;;;24.66;40.96;99870.75;4485145;32;33256;-57
2023/11/16 04:45:18;;;;;;;1.67;0.90;;;;;;;24.67;40.86;99869.72;4484984;32;33659;-56
2023/11/16 04:47:46;;;;;;;8.23;1.08;;;;;;;24.67;40.90;99866.16;4484855;32;33900;-55
2023/11/16 04:50:16;;;;;;;3.37;1.00;;;;;;;24.65;40.84;99871.84;4484829;32;34068;-57
2023/11/16 04:52:44;;;;;;;;;;;;;;;24.65;41.00;99868.28;4485357;32;33549;-57
2023/11/16 04:55:12;;;;;;;5.55;0.90;;;;;;;24.75;40.82;99871.28;4485161;32;34261;-57
2023/11/16 04:57:41;;;;;;;1.15;0.70;;;;;;;24.67;40.80;99874.34;4484808;32;34833;-57
2023/11/16 05:00:13;;;;;;;1.98;0.90;;;;;;;24.64;40.93;99875.62;4484898;32;35598;-57
2023/11/16 05:02:41;;;;;;;0.88;0.65;;;;;;;24.63;40.96;99876.72;4485048;32;33556;-57
2023/11/16 05:05:09;;;;;;;1.52;1.08;;;;;;;24.63;41.05;99889.53;4484803;32;33830;-57
2023/11/16 05:07:37;;;;;;;1.12;0.80;;;;;;;24.62;41.03;99880.50;4484815;32;34612;-55
2023/11/16 05:10:07;;;;;;;3.22;0.98;;;;;;;24.62;41.06;99896.88;4485249;32;34583;-53
2023/11/16 05:12:35;;;;;;;1.48;1.00;;;;;;;24.61;40.96;99897.91;4484860;32;33268;-56
2023/11/16 05:15:03;;;;;;;3.12;0.90;;;;;;;24.62;40.88;99907.78;4484632;32;33789;-57
2023/11/16 05:17:31;;;;;;;2.17;0.80;;;;;;;24.62;40.93;99910.53;4483840;32;34119;-59
2023/11/16 05:19:58;;;;;;;1.92;0.80;;;;;;;24.60;40.92;99909.91;4484820;32;34159;-56
2023/11/16 05:22:26;;;;;;;2.90;1.25;;;;;;;24.59;41.04;99910.97;4483421;32;33528;-55
2023/11/16 05:24:53;;;;;;;2.58;1.00;;;;;;;24.60;41.05;99915.34;4484829;32;33894;-58
2023/11/16 05:27:21;;;;;;;1.98;1.00;;;;;;;24.60;41.15;99911.78;4484666;32;33607;-58
2023/11/16 05:29:49;;;;;;;2.87;1.02;;;;;;;24.58;41.10;99909.31;4483959;32;34188;-56
2023/11/16 05:32:17;;;;;;;2.50;0.90;;;;;;;24.59;41.15;99908.25;4484414;32;33406;-58
2023/11/16 05:34:45;;;;;;;2.17;0.80;;;;;;;24.58;41.15;99905.75;4484632;32;34759;-57
2023/11/16 05:37:14;;;;;;;5.62;1.35;;;;;;;24.58;41.11;99908.47;4484474;32;33900;-57
2023/11/16 05:39:42;;;;;;;8.30;1.52;;;;;;;24.58;40.72;99906.59;4484541;32;34311;-58
2023/11/16 05:42:10;;;;;;;6.12;1.10;;;;;;;24.56;39.58;99905.12;4484868;32;33622;-56
2023/11/16 05:44:38;;;;;;;4.93;0.93;;;;;;;24.52;39.15;99912.13;4484362;32;34359;-58
2023/11/16 05:47:06;;;;;;;4.03;1.02;;;;;;;24.49;39.19;99916.16;4484495;32;34795;-59
2023/11/16 05:49:33;;;;;;;1.73;0.95;;;;;;;24.47;39.40;99923.72;4478210;32;34739;-57
2023/11/16 05:52:02;;;;;;;1.87;0.98;;;;;;;24.45;39.51;99925.84;4484371;32;33532;-58
2023/11/16 05:54:29;;;;;;;2.17;1.12;;;;;;;24.42;39.56;99935.31;4484461;32;33811;-56
2023/11/16 05:56:57;;;;;;;4.85;0.90;;;;;;;24.39;39.60;99930.34;4484466;32;33918;-57
2023/11/16 05:59:25;;;;;;;3.65;1.00;;;;;;;24.37;39.63;99927.00;4484605;32;33837;-57
2023/11/16 06:01:52;;;;;;;3.25;1.45;;;;;;;24.36;39.63;99917.16;4484565;32;33339;-58
2023/11/16 06:04:22;;;;;;;2.78;0.90;;;;;;;24.34;39.66;99921.12;4484680;32;34004;-58
2023/11/16 06:06:51;;;;;;;5.90;1.08;;;;;;;24.33;39.68;99930.38;4483646;32;33906;-58
2023/11/16 06:09:19;;;;;;;1.77;1.00;;;;;;;24.31;39.71;99929.78;4482294;32;35028;-58
2023/11/16 06:11:46;;;;;;;4.35;1.08;;;;;;;24.31;39.66;99927.06;4482635;32;33370;-58
2023/11/16 06:14:14;;;;;;;3.55;1.00;;;;;;;24.29;39.67;99931.91;4482701;32;35128;-58
2023/11/16 06:16:45;;;;;;;5.05;1.00;;;;;;;24.28;39.72;99935.69;4482904;32;34775;-58
2023/11/16 06:19:13;;;;;;;1.95;1.00;;;;;;;24.26;39.73;99932.37;4484153;32;34052;-58
2023/11/16 06:21:41;;;;;;;3.05;1.20;;;;;;;24.26;39.72;99940.56;4484434;32;33136;-57
2023/11/16 06:24:09;;;;;;;2.00;0.80;;;;;;;24.24;39.75;99931.75;4482996;32;33172;-58
2023/11/16 06:26:37;;;;;;;2.30;0.90;;;;;;;24.21;39.77;99924.87;4484323;32;33985;-58
2023/11/16 06:29:06;;;;;;;1.70;0.85;;;;;;;24.21;39.78;99922.16;4484311;32;34110;-56
2023/11/16 06:31:34;;;;;;;1.83;0.85;;;;;;;24.19;39.79;99925.09;4484350;32;33946;-58
2023/11/16 06:34:01;;;;;;;3.90;1.02;;;;;;;24.17;39.78;99916.31;4484313;32;33936;-58
2023/11/16 06:36:29;;;;;;;1.50;0.98;;;;;;;24.17;39.77;99918.22;4483049;32;33469;-59
2023/11/16 06:38:57;;;;;;;2.35;1.02;;;;;;;24.17;39.79;99923.66;4484267;32;34149;-56
2023/11/16 06:41:24;;;;;;;5.85;0.80;;;;;;;24.15;39.77;99917.59;4483746;32;34240;-56
2023/11/16 06:43:53;;;;;;;2.87;1.37;;;;;;;24.16;39.78;99933.75;4482315;32;33676;-57
2023/11/16 06:46:22;;;;;;;5.30;0.90;;;;;;;24.15;39.78;99933.94;4484449;32;34363;-58
2023/11/16 06:48:50;;;;;;;3.63;1.10;;;;;;;24.13;39.75;99944.25;4484084;32;34063;-59
2023/11/16 06:51:18;;;;;;;2.45;0.95;;;;;;;24.12;39.75;99937.97;4484114;32;33133;-61
2023/11/16 06:53:46;;;;;;;3.67;1.15;;;;;;;24.10;39.75;99942.81;4484384;32;33668;-58
2023/11/16 06:56:14;;;;;;;1.77;0.98;;;;;;;24.10;39.80;99953.72;4483938;32;34040;-58
2023/11/16 06:58:42;;;;;;;2.53;1.05;;;;;;;24.09;39.87;99940.31;4483917;32;34997;-59
2023/11/16 07:01:10;;;;;;;3.15;1.10;;;;;;;24.10;39.83;99934.63;4484030;32;34438;-56
2023/11/16 07:03:37;;;;;;;4.28;1.75;;;;;;;24.09;39.87;99938.44;4484056;32;33944;-57
2023/11/16 07:06:06;;;;;;;1.75;0.95;;;;;;;24.09;39.94;99938.44;4483832;32;33896;-58
2023/11/16 07:08:33;;;;;;;2.28;1.05;;;;;;;24.09;39.95;99949.31;4483932;32;34200;-58
2023/11/16 07:11:01;;;;;;;2.20;1.00;;;;;;;24.10;39.95;99947.44;4483690;32;34352;-58
2023/11/16 07:13:28;;;;;;;2.95;1.00;;;;;;;24.09;39.96;99949.31;4483867;32;33715;-57
2023/11/16 07:15:57;;;;;;;2.33;0.90;;;;;;;24.09;39.98;99951.22;4483740;32;34776;-59
2023/11/16 07:18:24;;;;;;;2.12;0.90;;;;;;;24.08;39.93;99958.56;4483456;32;34546;-58
2023/11/16 07:20:52;;;;;;;3.37;0.95;;;;;;;24.10;39.87;99951.00;4484107;32;33641;-58
2023/11/16 07:23:20;;;;;;;2.17;0.93;;;;;;;24.10;39.86;99953.72;4483646;32;33972;-58
2023/11/16 07:25:49;;;;;;;1.33;0.75;;;;;;;24.11;39.84;99955.41;4483763;32;33688;-58
2023/11/16 07:28:17;;;;;;;2.62;0.85;;;;;;;24.11;39.87;99960.84;4483566;32;34508;-59
2023/11/16 07:30:45;;;;;;;2.55;0.95;;;;;;;24.12;39.82;99953.50;4483727;32;34393;-57
2023/11/16 07:33:15;;;;;;;1.67;0.82;;;;;;;24.11;39.87;99963.59;4483521;32;34633;-58
2023/11/16 07:35:45;;;;;;;1.67;0.80;;;;;;;24.12;39.84;99965.25;4483650;32;34169;-59
2023/11/16 07:38:13;;;;;;;1.92;0.90;;;;;;;24.13;39.84;99961.44;4483257;32;34022;-58
2023/11/16 07:40:43;;;;;;;1.35;0.70;;;;;;;24.13;39.84;99966.91;4483321;32;33642;-60
2023/11/16 07:43:15;;;;;;;1.67;0.95;;;;;;;24.14;39.80;99967.72;4480880;32;34633;-60
2023/11/16 07:45:43;;;;;;;1.87;0.95;;;;;;;24.14;39.79;99974.00;4483102;32;33573;-60
2023/11/16 07:48:13;;;;;;;2.50;0.90;;;;;;;24.15;39.81;99972.97;4483023;32;33871;-60
2023/11/16 07:50:42;;;;;;;3.62;1.08;;;;;;;24.15;39.84;99970.25;4483206;32;33603;-60
2023/11/16 07:53:10;;;;;;;3.42;1.10;;;;;;;24.16;39.83;99971.09;4474792;32;33229;-58
2023/11/16 07:55:40;;;;;;;0.60;0.60;;;;;;;24.16;39.88;99968.34;4469741;32;34864;-59
2023/11/16 07:58:12;;;;;;;2.50;1.08;;;;;;;24.17;39.89;99970.84;4469641;32;34815;-58
2023/11/16 08:00:55;;;;;;;1.33;0.90;;;;;;;24.18;39.87;99964.31;4469716;32;33286;-59
2023/11/16 08:06:13;;;;;;;1.60;0.77;;;;;;;24.18;39.81;99964.31;4485266;32;34830;-60
2023/11/16 08:08:49;;;;;;;3.72;0.90;;;;;;;24.17;39.86;99962.66;4483892;32;34725;-59
2023/11/16 08:11:17;;;;;;;1.10;0.85;;;;;;;24.17;39.91;99962.66;4485286;32;33638;-59
2023/11/16 08:13:48;;;;;;;1.00;0.62;;;;;;;24.18;39.97;99958.88;4485250;32;34658;-59
2023/11/16 08:16:16;;;;;;;2.20;0.80;;;;;;;24.21;39.98;99962.22;4485146;32;33781;-58
2023/11/16 08:18:43;;;;;;;1.65;1.00;;;;;;;24.21;40.01;99963.06;4484935;32;34038;-57
2023/11/16 08:21:11;;;;;;;1.40;0.80;;;;;;;24.23;39.99;99962.81;4485216;32;33319;-59
2023/11/16 08:23:41;;;;;;;2.30;0.98;;;;;;;24.22;40.03;99961.16;4485036;32;34366;-58
2023/11/16 08:26:18;;;;;;;3.45;0.98;;;;;;;24.22;39.99;99972.06;4484003;32;34337;-57
2023/11/16 08:28:47;;;;;;;2.40;0.90;;;;;;;24.24;39.97;99957.13;4485023;32;33776;-59
2023/11/16 08:31:15;;;;;;;2.12;0.90;;;;;;;24.24;39.99;99969.94;4485061;32;33673;-57
2023/11/16 08:33:43;;;;;;;3.33;0.90;;;;;;;24.25;40.01;99971.59;4485291;32;33943;-58
2023/11/16 08:36:13;;;;;;;2.00;0.90;;;;;;;24.26;40.03;99973.28;4484870;32;33903;-60
2023/11/16 08:38:45;;;;;;;2.70;0.90;;;;;;;24.26;40.04;99965.91;4485151;32;33674;-58
2023/11/16 08:41:17;;;;;;;3.05;0.90;;;;;;;24.27;40.04;99972.22;4483933;32;34412;-59
2023/11/16 08:43:46;;;;;;;2.03;0.98;;;;;;;24.27;40.10;99981.22;4484890;32;33963;-56
2023/11/16 08:46:20;;;;;;;1.73;0.80;;;;;;;24.26;40.11;99979.56;4484938;32;34060;-58
2023/11/16 08:48:50;;;;;;;4.05;1.20;;;;;;;24.26;40.05;99982.28;4479151;32;32990;-60
2023/11/16 08:51:22;;;;;;;1.75;0.82;;;;;;;24.27;39.99;99977.66;4484367;32;34363;-60
2023/11/16 08:53:54;;;;;;;5.35;1.02;;;;;;;24.28;39.99;99968.41;4483479;32;33826;-60
2023/11/16 08:56:24;;;;;;;3.40;1.08;;;;;;;24.27;39.97;99970.31;4482858;32;34760;-60
2023/11/16 08:59:07;;;;;;;3.12;0.80;;;;;;;24.27;39.97;99966.75;4484071;32;34120;-60
2023/11/16 09:01:37;;;;;;;2.00;1.00;;;;;;;24.28;39.92;99962.97;4484907;32;33479;-60
2023/11/16 09:04:08;;;;;;;2.65;0.98;;;;;;;24.28;39.93;99957.50;4483650;32;33993;-59
2023/11/16 09:06:37;;;;;;;3.87;1.05;;;;;;;24.27;39.97;99964.03;4483169;32;34853;-60
2023/11/16 09:09:35;;;;;;;5.28;1.10;;;;;;;24.27;39.97;99973.03;4484276;32;34140;-60
2023/11/16 09:11:52;;;;;;;5.55;1.00;;;;;;;24.27;40.00;99966.75;4480944;32;32157;-60
2023/11/16 09:14:20;;;;;;;2.00;1.15;;;;;;;24.26;40.05;99963.19;4483297;32;33769;-61
2023/11/16 09:16:49;;;;;;;3.12;1.12;;;;;;;24.25;40.06;99961.53;4483376;32;33554;-60
2023/11/16 09:19:37;;;;;;;3.87;1.10;;;;;;;24.25;40.13;99957.94;4484090;32;34143;-59
2023/11/16 09:22:04;;;;;;;4.65;0.90;;;;;;;24.27;40.12;99958.56;4484913;32;33599;-59
2023/11/16 09:24:32;;;;;;;3.83;1.10;;;;;;;24.25;40.15;99969.72;4482108;32;34659;-60
2023/11/16 09:27:00;;;;;;;4.85;1.20;;;;;;;24.25;40.15;99971.59;4484038;32;34314;-59
2023/11/16 09:29:28;;;;;;;4.07;0.80;;;;;;;24.24;40.20;99953.56;4483962;32;34328;-61
2023/11/16 09:31:55;;;;;;;3.35;1.30;;;;;;;24.24;40.26;99965.31;4484486;32;32079;-60
2023/11/16 09:34:23;;;;;;;1.87;0.82;;;;;;;24.23;40.30;99954.63;4483915;32;34090;-60
2023/11/16 09:36:51;;;;;;;2.30;1.00;;;;;;;24.23;40.34;99954.63;4484296;32;34785;-59
2023/11/16 09:39:18;;;;;;;4.35;1.00;;;;;;;24.22;40.27;99942.06;4483767;32;33859;-59
2023/11/16 09:41:49;;;;;;;2.33;1.05;;;;;;;24.22;40.23;99936.62;4484551;32;33144;-61
2023/11/16 09:44:17;;;;;;;4.25;1.02;;;;;;;24.19;40.26;99918.81;4471476;32;33537;-59
2023/11/16 09:46:47;;;;;;;5.97;1.17;;;;;;;24.17;40.19;99929.12;4484493;32;33903;-60
2023/11/16 09:49:16;;;;;;;3.87;1.23;;;;;;;24.17;40.11;99926.38;4484409;32;34331;-59
2023/11/16 09:51:45;;;;;;;2.10;0.98;;;;;;;24.17;40.11;99919.03;4483408;32;33815;-59
2023/11/16 09:54:12;;;;;;;3.83;1.10;;;;;;;24.15;40.13;99921.19;4483148;32;33681;-60
2023/11/16 09:56:40;;;;;;;3.47;1.08;;;;;;;24.14;40.18;99913.22;4484485;32;33951;-59
2023/11/16 09:59:27;;;;;;;3.20;1.20;;;;;;;24.13;40.21;99906.94;4484625;32;33759;-59
2023/11/16 10:02:08;;;;;;;2.75;1.02;;;;;;;24.14;40.23;99913.22;4484540;32;33804;-59
2023/11/16 10:04:41;;;;;;;2.22;0.80;;;;;;;24.11;40.26;99917.25;4471465;32;34064;-60
2023/11/16 10:07:15;;;;;;;2.83;1.30;;;;;;;24.12;40.25;99921.62;4483218;32;34092;-59
2023/11/16 10:09:43;;;;;;;3.67;1.48;;;;;;;24.11;40.28;99919.97;4483431;32;34725;-59
2023/11/16 10:12:12;;;;;;;3.62;1.33;;;;;;;24.09;40.29;99911.16;4484408;32;34275;-59
2023/11/16 10:14:51;;;;;;;3.22;1.10;;;;;;;24.08;40.32;99904.06;4484750;32;33417;-60
2023/11/16 10:17:21;;;;;;;5.32;1.67;;;;;;;24.07;40.35;99907.84;4484122;32;34664;-60
2023/11/16 10:19:50;;;;;;;3.83;1.05;;;;;;;24.07;40.32;99907.84;4484250;32;34867;-59
2023/11/16 10:22:18;;;;;;;2.80;0.90;;;;;;;24.07;40.32;99902.41;4484411;32;34481;-60
2023/11/16 10:24:48;;;;;;;2.60;0.95;;;;;;;24.08;40.33;99897.78;4484697;32;33791;-60
2023/11/16 10:27:17;;;;;;;2.08;0.90;;;;;;;24.05;40.36;99893.59;4484307;32;34804;-59
2023/11/16 10:29:45;;;;;;;5.30;1.02;;;;;;;24.05;40.35;99895.50;4484285;32;34072;-59
2023/11/16 10:32:13;;;;;;;2.33;1.00;;;;;;;24.04;40.35;99891.09;4484312;32;33497;-59
2023/11/16 10:34:40;;;;;;;2.67;1.00;;;;;;;24.04;40.35;99897.38;4484245;32;34286;-59
2023/11/16 10:37:09;;;;;;;4.18;0.90;;;;;;;24.03;40.35;99879.37;4484350;32;33951;-59
2023/11/16 10:39:37;;;;;;;2.55;1.17;;;;;;;24.02;40.37;99876.88;4482879;32;34785;-59
2023/11/16 10:42:06;;;;;;;2.62;0.90;;;;;;;24.02;40.38;99883.16;4484202;32;34389;-59
2023/11/16 10:44:34;;;;;;;5.45;0.93;;;;;;;24.01;40.39;99884.22;4482977;32;34080;-60
2023/11/16 10:47:02;;;;;;;4.68;1.08;;;;;;;24.01;40.37;99878.75;4482886;32;34730;-59
2023/11/16 10:49:29;;;;;;;4.82;1.20;;;;;;;24.01;40.39;99872.47;4483169;32;34046;-59
2023/11/16 10:51:57;;;;;;;3.67;0.95;;;;;;;24.01;40.40;99875.19;4484029;32;34470;-59
2023/11/16 10:54:26;;;;;;;5.12;1.50;;;;;;;24.00;40.41;99865.38;4470007;32;33954;-59
2023/11/16 10:56:54;;;;;;;4.33;1.50;;;;;;;24.00;40.39;99863.47;4470289;32;34078;-60
2023/11/16 10:59:23;;;;;;;5.05;1.20;;;;;;;24.00;40.38;99866.19;4482718;32;34071;-59
2023/11/16 11:01:51;;;;;;;2.85;0.88;;;;;;;23.99;40.40;99867.25;4483072;32;33235;-59
2023/11/16 11:04:19;;;;;;;3.50;1.00;;;;;;;23.99;40.42;99871.87;4469745;32;34259;-60
2023/11/16 11:06:49;;;;;;;3.25;1.10;;;;;;;23.98;40.42;99865.59;4483777;32;34865;-58
2023/11/16 11:09:17;;;;;;;2.67;1.00;;;;;;;23.97;40.44;99868.53;4483828;32;33909;-60
2023/11/16 11:11:45;;;;;;;2.53;1.00;;;;;;;23.96;40.42;99851.34;4484142;32;33529;-59
2023/11/16 11:14:13;;;;;;;1.70;0.77;;;;;;;23.98;40.41;99856.59;4483817;32;34533;-59
2023/11/16 11:16:41;;;;;;;3.95;1.00;;;;;;;23.97;40.41;99861.22;4483752;32;34998;-59
2023/11/16 11:19:09;;;;;;;5.30;1.25;;;;;;;23.97;40.43;99863.94;4483758;32;34760;-59
2023/11/16 11:21:49;;;;;;;1.85;1.20;;;;;;;23.97;40.43;99842.16;4483721;32;33633;-58
2023/11/16 11:24:17;;;;;;;1.90;0.80;;;;;;;23.96;40.41;99843.19;4482568;32;33489;-59
2023/11/16 11:26:48;;;;;;;2.90;1.23;;;;;;;23.96;40.38;99826.84;4483425;32;33562;-59
2023/11/16 11:29:16;;;;;;;3.45;0.93;;;;;;;23.95;40.42;99821.62;4484607;32;35260;-60
2023/11/16 11:32:00;;;;;;;2.40;0.95;;;;;;;23.95;40.42;99824.34;4485541;32;33507;-59
2023/11/16 11:34:31;;;;;;;3.28;0.93;;;;;;;23.95;40.44;99830.63;4484463;32;33654;-58
2023/11/16 11:37:00;;;;;;;2.17;0.88;;;;;;;23.95;40.43;99825.19;4484279;32;34119;-59
2023/11/16 11:39:46;;;;;;;1.95;0.85;;;;;;;23.95;40.42;99818.91;4485410;32;34586;-60
2023/11/16 11:42:16;;;;;;;1.65;1.10;;;;;;;23.94;40.44;99820.78;4485519;32;33576;-59
2023/11/16 11:44:51;;;;;;;2.83;0.93;;;;;;;23.92;40.46;99821.03;4485663;32;34486;-59